首页
METAR-TAF:

METAR-TAF

机场 :

都柏林, 爱尔兰

都柏林机场

纬度: 53-26N, 经度: 006-15W, 海拔: 68米

当前天气观测

该预报发布于7分钟前的01:30 UTC
风速15节,风向西转西南
温度 1°C
湿度 93%
气压 1005 hPa
能见度10公里或以上
少量云层高于1700英尺

METAR: EIDW 190130Z 25015KT 9999 FEW017 01/M00 Q1005 NOSIG

时间: 01:37 (01:37 UTC)

预报

该预报发布于2小时和37分钟前的23:00 UTC
预报有效从19日的 00点(UTC)到 19日的 24点(UTC)
风速15节,风向西
能见度10公里或以上
少量云层高于1800英尺
散云层高于2500英尺
短暂存在
从 19日的 02点(UTC)到 19日的 04点(UTC)
风速15节,风向西转西南,有时为25节阵风
几率 30% :
短暂存在
从 19日的 02点(UTC)到 19日的 06点(UTC)
能見度: 5000
多云层高于1000英尺
散云层高于1800英尺, 积雨云.
小阵雨, 雪
成为
从 19日的 04点(UTC)到 19日的 06点(UTC)
风速15节,风向西转西南,有时为25节阵风
短暂存在
从 19日的 06点(UTC)到 19日的 18点(UTC)
能見度: 7000
散云层高于1300英尺
散云层高于1800英尺, 积雨云.
小阵雨
几率 40% :
短暂存在
从 19日的 06点(UTC)到 19日的 11点(UTC)
风速18节,风向西转西南,有时为30节阵风
能見度: 4000
多云层高于800英尺
小阵雨, 雪
成为
从 19日的 11点(UTC)到 19日的 14点(UTC)
风速20节,风向西,有时为30节阵风
成为
从 19日的 18点(UTC)到 19日的 21点(UTC)
风速15节,风向西转西南
成为
从 19日的 21点(UTC)到 19日的 24点(UTC)
风速10节,风向西南

TAF: EIDW 182300Z 1900/1924 26015KT 9999 FEW018 SCT025 TEMPO 1902/1904 25015G25KT PROB30 TEMPO 1902/1906 5000 -SHRASN BKN010 SCT018CB BECMG 1904/1906 24015G25KT TEMPO 1906/1918 7000 -SHRA SCT013 SCT018CB PROB40 TEMPO 1906/1911 25018G30KT 4000 -SHRASN BKN008 BECMG 1911/1914 26020G30KT BECMG 1918/1921 24015KT BECMG 1921/1924 23010KT

超过4000个机场的气象观测和天气预报(METAR&TAF报告)。

可查询的气象台以黄色和红色小点在地图上表示。

将鼠标移到小点上方,可查看气象台名称。

然后点击查看天气观测和预报。

如需切换地图:点击带黑十字的绿色按钮放大地图;点击带横线的绿色按钮缩小地图;或者点击绿色箭头查看邻近地区的地图。


METAR-TAF: